createdAt,value
2018-11-02T00:00:14.967Z,7.90
2018-11-02T00:01:28.284Z,8.00
2018-11-02T00:02:39.066Z,8.10
2018-11-02T00:03:49.044Z,8.10
2018-11-02T00:04:59.345Z,8.20
2018-11-02T00:06:09.866Z,8.20
2018-11-02T00:07:20.245Z,8.20
2018-11-02T00:08:30.284Z,8.20
2018-11-02T00:09:40.545Z,8.20
2018-11-02T00:10:50.462Z,8.20
2018-11-02T00:12:00.701Z,8.20
2018-11-02T00:13:11.094Z,8.10
2018-11-02T00:14:21.131Z,8.10
2018-11-02T00:15:31.384Z,8.10
2018-11-02T00:16:41.469Z,8.10
2018-11-02T00:17:51.466Z,8.10
2018-11-02T00:19:01.379Z,8.10
2018-11-02T00:20:11.283Z,8.00
2018-11-02T00:21:21.632Z,8.00
2018-11-02T00:22:32.018Z,8.00
2018-11-02T00:23:42.689Z,8.00
2018-11-02T00:24:52.971Z,8.00
2018-11-02T00:26:03.135Z,8.00
2018-11-02T00:27:13.273Z,8.00
2018-11-02T00:28:23.561Z,8.00
2018-11-02T00:29:33.870Z,8.10
2018-11-02T00:30:44.119Z,8.10
2018-11-02T00:31:54.101Z,8.10
2018-11-02T00:33:04.135Z,8.10
2018-11-02T00:34:14.191Z,8.10
2018-11-02T00:35:24.277Z,8.10
2018-11-02T00:36:34.376Z,8.10
2018-11-02T00:37:44.481Z,8.10
2018-11-02T00:38:54.685Z,8.10
2018-11-02T00:40:06.468Z,8.10
2018-11-02T00:41:16.709Z,8.10
2018-11-02T00:42:26.841Z,8.10
2018-11-02T00:43:37.474Z,8.10
2018-11-02T00:44:47.300Z,8.10
2018-11-02T00:45:57.957Z,8.10
2018-11-02T00:47:08.209Z,8.10
2018-11-02T00:48:18.630Z,8.10
2018-11-02T00:49:28.552Z,8.10
2018-11-02T00:50:38.518Z,8.10
2018-11-02T00:51:48.719Z,8.10
2018-11-02T00:52:58.845Z,8.10
2018-11-02T00:54:08.931Z,8.10
2018-11-02T00:55:19.636Z,8.10
2018-11-02T00:56:29.895Z,8.10
2018-11-02T00:57:40.036Z,8.00
2018-11-02T00:58:50.537Z,8.10
2018-11-02T01:00:00.660Z,8.10
2018-11-02T01:01:11.215Z,8.10
2018-11-02T01:02:21.257Z,8.10
2018-11-02T01:03:31.450Z,8.10
2018-11-02T01:04:41.938Z,8.10
2018-11-02T01:05:52.187Z,8.10
2018-11-02T01:07:02.177Z,8.10
2018-11-02T01:08:12.210Z,8.10
2018-11-02T01:09:22.686Z,8.10
2018-11-02T01:10:32.620Z,8.10
2018-11-02T01:11:42.640Z,8.10
2018-11-02T01:12:52.528Z,8.00
2018-11-02T01:14:03.016Z,8.10
2018-11-02T01:15:13.145Z,8.10
2018-11-02T01:16:23.186Z,8.00
2018-11-02T01:17:33.739Z,8.00
2018-11-02T01:18:43.756Z,8.00
2018-11-02T01:19:53.923Z,8.00
2018-11-02T01:21:03.957Z,8.10
2018-11-02T01:22:14.088Z,8.10
2018-11-02T01:23:24.476Z,8.00
2018-11-02T01:24:34.567Z,8.00
2018-11-02T01:25:44.511Z,8.00
2018-11-02T01:26:55.042Z,8.00
2018-11-02T01:28:05.313Z,8.00
2018-11-02T01:29:15.478Z,7.90
2018-11-02T01:30:25.696Z,7.90
2018-11-02T01:31:42.261Z,8.00
2018-11-02T01:32:51.953Z,8.00
2018-11-02T01:34:02.187Z,8.00
2018-11-02T01:35:12.838Z,7.90
2018-11-02T01:36:22.890Z,7.90
2018-11-02T01:37:32.915Z,7.90
2018-11-02T01:38:42.963Z,7.90
2018-11-02T01:39:53.018Z,7.90
2018-11-02T01:41:03.411Z,7.90
2018-11-02T01:42:13.721Z,7.90
2018-11-02T01:43:23.563Z,7.90
2018-11-02T01:44:33.712Z,7.90
2018-11-02T01:45:43.973Z,7.90
2018-11-02T01:46:54.220Z,8.00
2018-11-02T01:48:04.581Z,8.00
2018-11-02T01:49:14.821Z,7.90
2018-11-02T01:50:24.676Z,7.90
2018-11-02T01:51:35.189Z,7.90
2018-11-02T01:52:45.446Z,7.90
2018-11-02T01:53:55.154Z,7.90
2018-11-02T01:55:06.360Z,8.00
2018-11-02T01:56:16.387Z,7.90
2018-11-02T01:57:26.234Z,7.90
2018-11-02T01:58:36.810Z,7.90
2018-11-02T01:59:47.149Z,7.90
2018-11-02T02:00:57.011Z,7.90
2018-11-02T02:02:07.103Z,7.90
2018-11-02T02:03:17.445Z,7.90
2018-11-02T02:04:27.375Z,7.90
2018-11-02T02:05:37.355Z,8.00
2018-11-02T02:06:47.514Z,8.00
2018-11-02T02:07:57.704Z,7.90
2018-11-02T02:09:09.721Z,7.90
2018-11-02T02:10:20.101Z,7.90
2018-11-02T02:11:30.452Z,7.90
2018-11-02T02:12:40.443Z,7.90
2018-11-02T02:13:50.907Z,7.90
2018-11-02T02:15:01.345Z,7.90
2018-11-02T02:16:11.230Z,7.90
2018-11-02T02:17:21.091Z,8.00
2018-11-02T02:18:31.608Z,7.90
2018-11-02T02:19:41.757Z,7.90
2018-11-02T02:20:51.798Z,7.90
2018-11-02T02:22:02.076Z,7.90
2018-11-02T02:23:12.779Z,8.00
2018-11-02T02:24:23.068Z,8.00
2018-11-02T02:25:33.217Z,8.00
2018-11-02T02:26:43.233Z,8.00
2018-11-02T02:27:53.507Z,8.00
2018-11-02T02:29:03.924Z,8.00
2018-11-02T02:30:14.828Z,8.00
2018-11-02T02:31:24.826Z,8.00
2018-11-02T02:32:34.787Z,8.00
2018-11-02T02:33:45.211Z,8.10
2018-11-02T02:34:55.353Z,8.10
2018-11-02T02:36:05.671Z,8.00
2018-11-02T02:37:15.793Z,8.00
2018-11-02T02:38:25.841Z,8.00
2018-11-02T02:39:35.751Z,8.10
2018-11-02T02:40:45.669Z,8.10
2018-11-02T02:41:55.931Z,8.10
2018-11-02T02:43:06.093Z,8.10
2018-11-02T02:44:16.232Z,8.10
2018-11-02T02:45:26.256Z,8.10
2018-11-02T02:46:36.806Z,8.10
2018-11-02T02:47:47.114Z,8.10
2018-11-02T02:48:57.491Z,8.20
2018-11-02T02:50:10.634Z,8.10
2018-11-02T02:51:20.889Z,8.10
2018-11-02T02:52:30.957Z,8.10
2018-11-02T02:53:41.273Z,8.10
2018-11-02T02:54:51.119Z,8.20
2018-11-02T02:56:01.431Z,8.20
2018-11-02T02:57:11.539Z,8.10
2018-11-02T02:58:21.690Z,8.20
2018-11-02T02:59:31.587Z,8.10
2018-11-02T03:00:41.859Z,8.20
2018-11-02T03:01:51.802Z,8.20
2018-11-02T03:03:01.754Z,8.20
2018-11-02T03:04:12.112Z,8.20
2018-11-02T03:05:22.553Z,8.20
2018-11-02T03:06:32.515Z,8.20
2018-11-02T03:07:42.869Z,8.20
2018-11-02T03:08:53.026Z,8.20
2018-11-02T03:10:03.164Z,8.20
2018-11-02T03:11:14.134Z,8.10
2018-11-02T03:12:23.825Z,8.10
2018-11-02T03:13:34.155Z,8.00
2018-11-02T03:14:44.137Z,7.90
2018-11-02T03:15:54.130Z,8.00
2018-11-02T03:17:04.276Z,8.00
2018-11-02T03:18:14.384Z,7.90
2018-11-02T03:19:24.169Z,7.90
2018-11-02T03:20:34.581Z,7.90
2018-11-02T03:21:44.674Z,7.90
2018-11-02T03:22:54.648Z,7.90
2018-11-02T03:24:04.804Z,7.90
2018-11-02T03:25:15.091Z,7.90
2018-11-02T03:26:24.943Z,7.90
2018-11-02T03:27:34.964Z,7.90
2018-11-02T03:28:45.091Z,7.90
2018-11-02T03:29:55.671Z,7.90
2018-11-02T03:31:05.924Z,7.90
2018-11-02T03:32:16.158Z,7.90
2018-11-02T03:33:26.336Z,7.90
2018-11-02T03:34:36.547Z,7.90
2018-11-02T03:35:46.900Z,7.90
2018-11-02T03:36:57.117Z,7.90
2018-11-02T03:38:07.169Z,7.80
2018-11-02T03:39:17.379Z,7.80
2018-11-02T03:40:27.455Z,7.80
2018-11-02T03:41:37.509Z,7.70
2018-11-02T03:42:47.721Z,7.70
2018-11-02T03:43:57.501Z,7.70
2018-11-02T03:45:07.952Z,7.70
2018-11-02T03:46:17.897Z,7.70
2018-11-02T03:47:28.296Z,7.70
2018-11-02T03:48:38.088Z,7.70
2018-11-02T03:49:48.184Z,7.70
2018-11-02T03:50:58.574Z,7.70
2018-11-02T03:52:08.508Z,7.70
2018-11-02T03:53:18.498Z,7.70
2018-11-02T03:54:28.596Z,7.70
2018-11-02T03:55:38.846Z,7.70
2018-11-02T03:56:49.233Z,7.70
2018-11-02T03:58:06.185Z,7.70
2018-11-02T03:59:16.341Z,7.70
2018-11-02T04:00:25.967Z,7.80
2018-11-02T04:01:35.746Z,7.80
2018-11-02T04:02:45.386Z,7.70
2018-11-02T04:03:55.283Z,7.70
2018-11-02T04:05:05.489Z,7.80
2018-11-02T04:06:14.942Z,7.80
2018-11-02T04:07:24.864Z,7.80
2018-11-02T04:08:34.612Z,7.80
2018-11-02T04:09:44.367Z,7.80
2018-11-02T04:10:54.036Z,7.70
2018-11-02T04:12:04.037Z,7.80
2018-11-02T04:13:14.427Z,7.70
2018-11-02T04:14:24.179Z,7.80
2018-11-02T04:15:33.962Z,7.80
2018-11-02T04:16:43.685Z,7.80
2018-11-02T04:17:53.479Z,7.80
2018-11-02T04:19:03.213Z,7.80
2018-11-02T04:20:12.885Z,7.90
2018-11-02T04:21:29.230Z,7.80
2018-11-02T04:22:39.034Z,7.90
2018-11-02T04:23:48.806Z,7.90
2018-11-02T04:24:58.653Z,7.90
2018-11-02T04:26:08.645Z,7.90
2018-11-02T04:27:18.403Z,7.90
2018-11-02T04:28:28.205Z,7.90
2018-11-02T04:29:38.017Z,7.80
2018-11-02T04:30:47.769Z,7.80
2018-11-02T04:31:57.429Z,7.90
2018-11-02T04:33:07.242Z,7.90
2018-11-02T04:34:16.846Z,7.90
2018-11-02T04:35:26.553Z,7.90
2018-11-02T04:36:36.418Z,8.00
2018-11-02T04:37:46.209Z,8.00
2018-11-02T04:38:55.842Z,7.90
2018-11-02T04:40:06.016Z,7.90
2018-11-02T04:41:16.179Z,7.90
2018-11-02T04:42:26.102Z,7.90
2018-11-02T04:43:35.792Z,7.90
2018-11-02T04:44:45.518Z,7.90
2018-11-02T04:45:55.267Z,7.80
2018-11-02T04:47:05.260Z,7.80
2018-11-02T04:48:14.902Z,7.80
2018-11-02T04:49:24.379Z,7.80
2018-11-02T04:50:34.238Z,7.80
2018-11-02T04:51:44.278Z,7.90
2018-11-02T04:52:53.860Z,7.90
2018-11-02T04:54:03.676Z,7.80
2018-11-02T04:55:13.570Z,7.80
2018-11-02T04:56:24.413Z,7.80
2018-11-02T04:57:34.016Z,7.80
2018-11-02T04:58:43.901Z,7.80
2018-11-02T04:59:53.770Z,7.80
2018-11-02T05:01:03.551Z,7.90
2018-11-02T05:02:13.154Z,7.90
2018-11-02T05:03:22.781Z,8.00
2018-11-02T05:04:32.467Z,8.00
2018-11-02T05:05:42.312Z,8.00
2018-11-02T05:06:51.944Z,8.00
2018-11-02T05:08:01.710Z,8.00
2018-11-02T05:09:11.461Z,8.00
2018-11-02T05:10:21.007Z,7.90
2018-11-02T05:11:30.889Z,7.90
2018-11-02T05:12:40.674Z,7.90
2018-11-02T05:13:50.548Z,7.90
2018-11-02T05:15:00.519Z,8.00
2018-11-02T05:16:10.011Z,8.00
2018-11-02T05:17:19.790Z,8.00
2018-11-02T05:18:29.714Z,8.00
2018-11-02T05:19:39.205Z,8.00
2018-11-02T05:20:48.950Z,7.90
2018-11-02T05:21:58.475Z,7.90
2018-11-02T05:23:08.182Z,8.00
2018-11-02T05:24:17.985Z,7.90
2018-11-02T05:25:27.749Z,8.00
2018-11-02T05:26:37.766Z,7.90
2018-11-02T05:27:47.419Z,7.90
2018-11-02T05:28:57.347Z,8.00
2018-11-02T05:30:08.265Z,7.90
2018-11-02T05:31:17.757Z,7.90
2018-11-02T05:32:27.658Z,8.00
2018-11-02T05:33:37.414Z,8.00
2018-11-02T05:34:47.303Z,8.00
2018-11-02T05:35:57.284Z,8.00
2018-11-02T05:37:07.021Z,8.00
2018-11-02T05:38:16.798Z,8.00
2018-11-02T05:39:26.831Z,8.00
2018-11-02T05:40:36.561Z,8.00
2018-11-02T05:41:46.470Z,8.00
2018-11-02T05:42:56.317Z,7.90
2018-11-02T05:44:06.233Z,7.90
2018-11-02T05:45:15.937Z,7.90
2018-11-02T05:46:25.849Z,8.00
2018-11-02T05:47:35.801Z,7.90
2018-11-02T05:48:45.709Z,7.90
2018-11-02T05:49:55.219Z,7.90
2018-11-02T05:51:05.549Z,7.80
2018-11-02T05:52:15.055Z,7.80
2018-11-02T05:53:25.070Z,7.80
2018-11-02T05:54:34.991Z,7.80
2018-11-02T05:55:44.585Z,7.80
2018-11-02T05:56:54.303Z,7.90
2018-11-02T05:58:04.026Z,7.80
2018-11-02T05:59:13.869Z,7.80
2018-11-02T06:00:23.923Z,7.80
2018-11-02T06:01:33.710Z,7.80
2018-11-02T06:02:43.471Z,7.80
2018-11-02T06:03:53.173Z,7.70
2018-11-02T06:05:02.914Z,7.70
2018-11-02T06:06:12.671Z,7.70
2018-11-02T06:07:22.585Z,7.70
2018-11-02T06:08:32.311Z,7.70
2018-11-02T06:09:41.861Z,7.80
2018-11-02T06:10:51.639Z,7.80
2018-11-02T06:12:01.529Z,7.80
2018-11-02T06:13:11.181Z,7.90
2018-11-02T06:14:21.076Z,7.90
2018-11-02T06:15:31.042Z,7.90
2018-11-02T06:16:40.819Z,7.80
2018-11-02T06:17:50.350Z,7.80
2018-11-02T06:19:00.061Z,7.80
2018-11-02T06:20:10.770Z,7.80
2018-11-02T06:21:20.651Z,7.80
2018-11-02T06:22:30.471Z,7.80
2018-11-02T06:23:40.197Z,7.70
2018-11-02T06:24:50.154Z,7.70
2018-11-02T06:25:59.750Z,7.70
2018-11-02T06:27:09.708Z,7.60
2018-11-02T06:28:19.543Z,7.60
2018-11-02T06:29:29.276Z,7.60
2018-11-02T06:30:39.130Z,7.60
2018-11-02T06:31:49.082Z,7.70
2018-11-02T06:32:59.007Z,7.70
2018-11-02T06:34:08.641Z,7.70
2018-11-02T06:35:18.193Z,7.80
2018-11-02T06:36:28.160Z,7.90
2018-11-02T06:37:37.920Z,8.00
2018-11-02T06:38:47.843Z,8.10
2018-11-02T06:39:57.605Z,8.20
2018-11-02T06:41:07.614Z,8.20
2018-11-02T06:42:17.628Z,8.10
2018-11-02T06:43:27.500Z,8.10
2018-11-02T06:44:37.374Z,8.00
2018-11-02T06:45:47.117Z,7.90
2018-11-02T06:46:57.218Z,7.90
2018-11-02T06:48:06.835Z,7.90
2018-11-02T06:49:16.501Z,7.90
2018-11-02T06:50:26.115Z,8.10
2018-11-02T06:51:35.643Z,8.00
2018-11-02T06:52:45.668Z,8.00
2018-11-02T06:53:55.262Z,8.10
2018-11-02T06:55:06.212Z,8.00
2018-11-02T06:56:15.980Z,8.00
2018-11-02T06:57:25.855Z,7.90
2018-11-02T06:58:35.311Z,7.90
2018-11-02T06:59:45.331Z,7.90
2018-11-02T07:00:54.979Z,7.90
2018-11-02T07:02:04.545Z,7.90
2018-11-02T07:03:14.386Z,7.90
2018-11-02T07:04:24.630Z,7.90
2018-11-02T07:05:34.399Z,7.90
2018-11-02T07:06:43.977Z,7.90
2018-11-02T07:07:54.023Z,8.00
2018-11-02T07:09:04.598Z,8.00
2018-11-02T07:10:15.232Z,8.00
2018-11-02T07:11:25.021Z,8.00
2018-11-02T07:12:35.074Z,8.00
2018-11-02T07:13:44.726Z,8.00
2018-11-02T07:14:54.974Z,8.00
2018-11-02T07:16:04.692Z,8.00
2018-11-02T07:17:14.473Z,8.10
2018-11-02T07:18:24.024Z,8.00
2018-11-02T07:19:33.733Z,8.00
2018-11-02T07:20:43.343Z,8.10
2018-11-02T07:21:52.959Z,8.00
2018-11-02T07:23:02.565Z,8.10
2018-11-02T07:24:12.436Z,8.10
2018-11-02T07:25:22.231Z,8.10
2018-11-02T07:26:31.990Z,8.10
2018-11-02T07:27:41.513Z,8.20
2018-11-02T07:28:51.205Z,8.20
2018-11-02T07:30:01.049Z,8.20
2018-11-02T07:31:10.743Z,8.20
2018-11-02T07:32:20.357Z,8.20
2018-11-02T07:33:30.402Z,8.20
2018-11-02T07:34:39.985Z,8.30
2018-11-02T07:35:49.579Z,8.30
2018-11-02T07:36:59.253Z,8.40
2018-11-02T07:38:08.823Z,8.40
2018-11-02T07:39:18.987Z,8.40
2018-11-02T07:40:29.072Z,8.30
2018-11-02T07:41:38.855Z,8.30
2018-11-02T07:42:48.529Z,8.40
2018-11-02T07:43:58.170Z,8.30
2018-11-02T07:45:09.011Z,8.40
2018-11-02T07:46:18.700Z,8.40
2018-11-02T07:47:28.516Z,8.40
2018-11-02T07:48:38.526Z,8.40
2018-11-02T07:49:48.246Z,8.50
2018-11-02T07:50:58.706Z,8.50
2018-11-02T07:52:08.405Z,8.50
2018-11-02T07:53:18.090Z,8.50
2018-11-02T07:54:27.902Z,8.50
2018-11-02T07:55:37.768Z,8.60
2018-11-02T07:56:47.370Z,8.60
2018-11-02T07:57:57.365Z,8.70
2018-11-02T07:59:07.200Z,8.70
2018-11-02T08:00:18.288Z,8.70
2018-11-02T08:01:28.175Z,8.80
2018-11-02T08:02:37.931Z,8.80
2018-11-02T08:03:47.680Z,8.80
2018-11-02T08:04:57.463Z,8.80
2018-11-02T08:06:07.134Z,8.80
2018-11-02T08:07:16.947Z,8.90
2018-11-02T08:08:26.877Z,8.90
2018-11-02T08:10:50.168Z,9.00
2018-11-02T08:11:59.759Z,9.10
2018-11-02T08:13:12.270Z,9.10
2018-11-02T08:14:21.905Z,9.10
2018-11-02T08:15:31.564Z,9.10
2018-11-02T08:16:41.629Z,9.10
2018-11-02T08:17:51.319Z,9.10
2018-11-02T08:19:00.926Z,9.10
2018-11-02T08:20:12.127Z,9.20
2018-11-02T08:21:21.881Z,9.30
2018-11-02T08:22:31.584Z,9.30
2018-11-02T08:23:41.432Z,9.30
2018-11-02T08:24:51.008Z,9.40
2018-11-02T08:26:00.767Z,9.40
2018-11-02T08:27:10.331Z,9.40
2018-11-02T08:28:20.072Z,9.40
2018-11-02T08:29:29.690Z,9.50
2018-11-02T08:30:39.484Z,9.40
2018-11-02T08:31:49.248Z,9.50
2018-11-02T08:32:59.054Z,9.50
2018-11-02T08:34:08.844Z,9.50
2018-11-02T08:35:18.717Z,9.50
2018-11-02T08:36:28.291Z,9.50
2018-11-02T08:37:37.745Z,9.60
2018-11-02T08:38:47.314Z,9.60
2018-11-02T08:39:56.890Z,9.60
2018-11-02T08:41:06.524Z,9.70
2018-11-02T08:42:16.620Z,9.70
2018-11-02T08:43:26.229Z,9.80
2018-11-02T08:45:08.849Z,9.90
2018-11-02T08:46:18.553Z,10.00
2018-11-02T08:47:28.155Z,10.00
2018-11-02T08:48:38.142Z,10.00
2018-11-02T08:49:47.781Z,10.10
2018-11-02T08:50:57.525Z,10.00
2018-11-02T08:52:07.861Z,10.00
2018-11-02T08:53:17.624Z,10.00
2018-11-02T08:54:27.216Z,10.10
2018-11-02T08:55:36.902Z,10.10
2018-11-02T08:56:46.552Z,10.10
2018-11-02T08:57:56.492Z,10.10
2018-11-02T08:59:06.502Z,10.10
2018-11-02T09:00:16.450Z,10.10
2018-11-02T09:01:25.941Z,10.10
2018-11-02T09:02:35.706Z,10.10
2018-11-02T09:03:45.290Z,10.10
2018-11-02T09:04:55.094Z,10.20
2018-11-02T09:06:05.005Z,10.20
2018-11-02T09:07:14.663Z,10.30
2018-11-02T09:08:24.310Z,10.30
2018-11-02T09:10:43.378Z,10.40
2018-11-02T09:11:53.098Z,10.40
2018-11-02T09:13:02.670Z,10.40
2018-11-02T09:14:12.212Z,10.50
2018-11-02T09:15:21.966Z,10.50
2018-11-02T09:16:31.627Z,10.40
2018-11-02T09:17:41.295Z,10.50
2018-11-02T09:18:57.375Z,10.50
2018-11-02T09:20:06.881Z,10.60
2018-11-02T09:21:16.394Z,10.60
2018-11-02T09:22:26.277Z,10.60
2018-11-02T09:23:35.954Z,10.70
2018-11-02T09:24:45.448Z,10.70
2018-11-02T09:25:55.369Z,10.70
2018-11-02T09:27:05.519Z,10.70
2018-11-02T09:28:18.722Z,10.70
2018-11-02T09:29:28.631Z,10.70
2018-11-02T09:30:38.393Z,10.70
2018-11-02T09:31:47.914Z,10.80
2018-11-02T09:32:57.466Z,10.80
2018-11-02T09:34:07.012Z,10.80
2018-11-02T09:35:16.505Z,10.80
2018-11-02T09:36:26.231Z,10.90
2018-11-02T09:37:35.673Z,10.90
2018-11-02T09:38:45.340Z,10.90
2018-11-02T09:39:54.932Z,10.90
2018-11-02T09:41:04.580Z,10.90
2018-11-02T09:42:14.385Z,10.90
2018-11-02T09:43:24.154Z,11.00
2018-11-02T09:44:33.810Z,10.90
2018-11-02T09:45:43.493Z,11.00
2018-11-02T09:46:53.301Z,11.00
2018-11-02T09:48:02.980Z,11.00
2018-11-02T09:49:12.550Z,11.00
2018-11-02T09:50:22.362Z,11.00
2018-11-02T09:51:31.972Z,11.00
2018-11-02T09:52:41.596Z,11.00
2018-11-02T09:53:51.433Z,11.10
2018-11-02T09:55:01.112Z,11.30
2018-11-02T09:56:10.844Z,11.30
2018-11-02T09:57:20.690Z,11.30
2018-11-02T09:58:30.467Z,11.30
2018-11-02T09:59:40.167Z,11.30
2018-11-02T10:00:49.893Z,11.30
2018-11-02T10:01:59.674Z,11.30
2018-11-02T10:03:09.535Z,11.30
2018-11-02T10:04:19.083Z,11.30
2018-11-02T10:05:28.848Z,11.30
2018-11-02T10:06:38.589Z,11.30
2018-11-02T10:07:48.489Z,11.30
2018-11-02T10:08:58.183Z,11.40
2018-11-02T10:10:09.396Z,11.40
2018-11-02T10:11:18.986Z,11.30
2018-11-02T10:12:28.822Z,11.30
2018-11-02T10:13:38.515Z,11.40
2018-11-02T10:14:48.060Z,11.30
2018-11-02T10:15:57.735Z,11.30
2018-11-02T10:17:07.422Z,11.40
2018-11-02T10:18:17.056Z,11.40
2018-11-02T10:19:26.865Z,11.50
2018-11-02T10:20:36.313Z,11.60
2018-11-02T10:21:46.058Z,11.60
2018-11-02T10:22:55.530Z,11.70
2018-11-02T10:24:05.679Z,11.70
2018-11-02T10:25:15.358Z,11.70
2018-11-02T10:26:24.863Z,11.80
2018-11-02T10:27:34.985Z,11.70
2018-11-02T10:28:44.768Z,11.70
2018-11-02T10:29:54.478Z,11.70
2018-11-02T10:31:04.125Z,11.70
2018-11-02T10:32:13.749Z,11.70
2018-11-02T10:33:23.182Z,11.80
2018-11-02T10:34:33.011Z,11.90
2018-11-02T10:35:42.665Z,11.90
2018-11-02T10:36:52.046Z,12.00
2018-11-02T10:38:02.477Z,12.00
2018-11-02T10:39:13.379Z,12.10
2018-11-02T10:40:23.215Z,12.20
2018-11-02T10:41:37.389Z,12.20
2018-11-02T10:42:53.141Z,12.20
2018-11-02T10:44:03.128Z,12.20
2018-11-02T10:45:12.805Z,12.10
2018-11-02T10:46:22.394Z,12.20
2018-11-02T10:47:32.202Z,12.20
2018-11-02T10:48:42.153Z,12.10
2018-11-02T10:49:51.633Z,12.00
2018-11-02T10:51:01.304Z,12.10
2018-11-02T10:52:11.064Z,12.10
2018-11-02T10:53:20.915Z,12.20
2018-11-02T10:54:30.609Z,12.20
2018-11-02T10:55:40.118Z,12.10
2018-11-02T10:56:50.314Z,12.10
2018-11-02T10:58:00.162Z,12.10
2018-11-02T10:59:11.450Z,12.10
2018-11-02T11:00:27.267Z,12.10
2018-11-02T11:01:43.036Z,12.10
2018-11-02T11:02:52.800Z,12.10
2018-11-02T11:04:02.474Z,12.00
2018-11-02T11:05:12.277Z,12.00
2018-11-02T11:06:22.159Z,12.00
2018-11-02T11:07:31.896Z,11.90
2018-11-02T11:08:41.892Z,11.90
2018-11-02T11:09:51.647Z,11.80
2018-11-02T11:11:01.444Z,11.90
2018-11-02T11:12:11.383Z,11.90
2018-11-02T11:13:21.579Z,11.90
2018-11-02T11:14:32.525Z,11.80
2018-11-02T11:15:43.739Z,11.80
2018-11-02T11:16:54.614Z,11.70
2018-11-02T11:18:05.999Z,11.70
2018-11-02T11:19:17.481Z,11.70
2018-11-02T11:20:28.966Z,11.80
2018-11-02T11:21:40.977Z,11.80
2018-11-02T11:22:52.356Z,11.80
2018-11-02T11:24:03.307Z,11.80
2018-11-02T11:25:15.685Z,11.80
2018-11-02T11:26:27.316Z,11.70
2018-11-02T11:27:38.196Z,11.70
2018-11-02T11:28:49.485Z,11.70
2018-11-02T11:30:00.497Z,11.60
2018-11-02T11:31:10.061Z,11.70
2018-11-02T11:32:20.038Z,11.70
2018-11-02T11:33:29.879Z,11.70
2018-11-02T11:34:39.449Z,11.60
2018-11-02T11:35:49.784Z,11.60
2018-11-02T11:36:59.488Z,11.60
2018-11-02T11:38:09.128Z,11.60
2018-11-02T11:39:18.881Z,11.60
2018-11-02T11:40:28.489Z,11.60
2018-11-02T11:41:38.295Z,11.70
2018-11-02T11:42:48.170Z,11.70
2018-11-02T11:43:57.723Z,11.60
2018-11-02T11:45:08.693Z,11.60
2018-11-02T11:46:18.425Z,11.50
2018-11-02T11:47:28.236Z,11.50
2018-11-02T11:48:37.860Z,11.40
2018-11-02T11:49:47.481Z,11.40
2018-11-02T11:50:57.288Z,11.50
2018-11-02T11:52:06.886Z,11.50
2018-11-02T11:53:16.586Z,11.50
2018-11-02T11:54:26.727Z,11.50
2018-11-02T11:55:36.325Z,11.50
2018-11-02T11:56:46.227Z,11.50
2018-11-02T11:57:55.901Z,11.40
2018-11-02T11:59:05.738Z,11.40
2018-11-02T12:00:17.430Z,11.40
2018-11-02T12:01:27.050Z,11.40
2018-11-02T12:02:37.538Z,11.40
2018-11-02T12:03:47.200Z,11.40
2018-11-02T12:04:57.051Z,11.40
2018-11-02T12:06:06.873Z,11.40
2018-11-02T12:07:16.856Z,11.30
2018-11-02T12:08:26.443Z,11.40
2018-11-02T12:09:36.233Z,11.30
2018-11-02T12:10:45.971Z,11.30
2018-11-02T12:11:55.961Z,11.30
2018-11-02T12:13:06.068Z,11.30
2018-11-02T12:14:15.810Z,11.30
2018-11-02T12:15:26.064Z,11.30
2018-11-02T12:16:35.795Z,11.40
2018-11-02T12:17:46.116Z,11.40
2018-11-02T12:18:55.780Z,11.40
2018-11-02T12:20:08.255Z,11.50
2018-11-02T12:21:17.995Z,11.50
2018-11-02T12:22:27.755Z,11.60
2018-11-02T12:23:37.605Z,11.50
2018-11-02T12:24:47.169Z,11.50
2018-11-02T12:25:56.763Z,11.50
2018-11-02T12:27:06.720Z,11.40
2018-11-02T12:28:16.419Z,11.40
2018-11-02T12:29:26.066Z,11.40
2018-11-02T12:30:35.923Z,11.30
2018-11-02T12:31:45.805Z,11.40
2018-11-02T12:32:55.521Z,11.40
2018-11-02T12:34:05.600Z,11.40
2018-11-02T12:35:16.745Z,11.50
2018-11-02T12:36:26.521Z,11.40
2018-11-02T12:37:36.370Z,11.50
2018-11-02T12:38:45.956Z,11.40
2018-11-02T12:39:55.606Z,11.50
2018-11-02T12:41:05.535Z,11.50
2018-11-02T12:42:15.325Z,11.50
2018-11-02T12:43:24.821Z,11.50
2018-11-02T12:44:34.666Z,11.40
2018-11-02T12:45:44.324Z,11.50
2018-11-02T12:46:54.221Z,11.50
2018-11-02T12:48:04.153Z,11.50
2018-11-02T12:49:14.600Z,11.60
2018-11-02T12:50:25.949Z,11.60
2018-11-02T12:51:35.586Z,11.70
2018-11-02T12:52:46.278Z,11.70
2018-11-02T12:53:55.979Z,11.60
2018-11-02T12:55:05.690Z,11.70
2018-11-02T12:56:15.465Z,11.60
2018-11-02T12:57:25.286Z,11.60
2018-11-02T12:58:34.924Z,11.60
2018-11-02T12:59:44.500Z,11.60
2018-11-02T13:00:54.157Z,11.50
2018-11-02T13:02:03.719Z,11.60
2018-11-02T13:03:13.536Z,11.60
2018-11-02T13:04:23.312Z,11.60
2018-11-02T13:05:33.047Z,11.60
2018-11-02T13:06:42.949Z,11.60
2018-11-02T13:07:52.579Z,11.60
2018-11-02T13:09:02.540Z,11.60
2018-11-02T13:10:13.525Z,11.60
2018-11-02T13:11:23.031Z,11.50
2018-11-02T13:12:32.714Z,11.50
2018-11-02T13:13:42.469Z,11.50
2018-11-02T13:14:52.173Z,11.50
2018-11-02T13:16:02.288Z,11.50
2018-11-02T13:17:12.074Z,11.50
2018-11-02T13:18:21.732Z,11.50
2018-11-02T13:19:31.566Z,11.50
2018-11-02T13:20:41.291Z,11.50
2018-11-02T13:21:51.045Z,11.50
2018-11-02T13:23:01.152Z,11.50
2018-11-02T13:24:10.956Z,11.40
2018-11-02T13:25:21.782Z,11.40
2018-11-02T13:26:31.577Z,11.40
2018-11-02T13:27:41.460Z,11.40
2018-11-02T13:28:51.782Z,11.40
2018-11-02T13:30:01.540Z,11.40
2018-11-02T13:31:11.233Z,11.40
2018-11-02T13:32:20.918Z,11.30
2018-11-02T13:33:30.939Z,11.30
2018-11-02T13:34:40.623Z,11.30
2018-11-02T13:35:50.306Z,11.30
2018-11-02T13:37:00.231Z,11.30
2018-11-02T13:38:09.947Z,11.30
2018-11-02T13:39:19.734Z,11.30
2018-11-02T13:40:29.353Z,11.30
2018-11-02T13:41:39.276Z,11.40
2018-11-02T13:42:49.247Z,11.40
2018-11-02T13:43:58.735Z,11.50
2018-11-02T13:45:10.192Z,11.50
2018-11-02T13:46:20.048Z,11.50
2018-11-02T13:47:30.238Z,11.50
2018-11-02T13:48:40.070Z,11.40
2018-11-02T13:49:50.062Z,11.40
2018-11-02T13:50:59.706Z,11.40
2018-11-02T13:52:10.660Z,11.30
2018-11-02T13:53:20.323Z,11.40
2018-11-02T13:54:29.865Z,11.40
2018-11-02T13:55:39.954Z,11.40
2018-11-02T13:56:49.595Z,11.40
2018-11-02T13:57:59.231Z,11.40
2018-11-02T13:59:08.897Z,11.40
2018-11-02T14:00:19.190Z,11.40
2018-11-02T14:01:29.051Z,11.40
2018-11-02T14:02:38.637Z,11.40
2018-11-02T14:03:48.167Z,11.40
2018-11-02T14:04:58.305Z,11.50
2018-11-02T14:06:08.074Z,11.50
2018-11-02T14:07:17.810Z,11.50
2018-11-02T14:08:27.619Z,11.50
2018-11-02T14:09:37.107Z,11.50
2018-11-02T14:10:46.772Z,11.50
2018-11-02T14:11:56.622Z,11.40
2018-11-02T14:13:06.607Z,11.40
2018-11-02T14:14:16.591Z,11.40
2018-11-02T14:15:26.264Z,11.40
2018-11-02T14:16:36.034Z,11.30
2018-11-02T14:17:46.334Z,11.30
2018-11-02T14:18:56.201Z,11.40
2018-11-02T14:20:07.852Z,11.40
2018-11-02T14:21:17.702Z,11.30
2018-11-02T14:22:27.424Z,11.30
2018-11-02T14:23:37.534Z,11.30
2018-11-02T14:24:47.199Z,11.30
2018-11-02T14:25:56.984Z,11.30
2018-11-02T14:27:06.934Z,11.30
2018-11-02T14:28:16.710Z,11.30
2018-11-02T14:29:26.621Z,11.30
2018-11-02T14:30:36.345Z,11.30
2018-11-02T14:31:45.958Z,11.40
2018-11-02T14:32:55.462Z,11.40
2018-11-02T14:34:05.688Z,11.30
2018-11-02T14:35:15.682Z,11.40
2018-11-02T14:36:25.300Z,11.40
2018-11-02T14:37:35.451Z,11.30
2018-11-02T14:38:45.009Z,11.30
2018-11-02T14:39:54.805Z,11.30
2018-11-02T14:41:04.945Z,11.20
2018-11-02T14:42:14.755Z,11.10
2018-11-02T14:43:24.330Z,11.10
2018-11-02T14:44:34.128Z,11.10
2018-11-02T14:45:44.223Z,11.10
2018-11-02T14:46:53.921Z,11.10
2018-11-02T14:48:03.837Z,11.10
2018-11-02T14:49:13.671Z,11.10
2018-11-02T14:50:23.501Z,11.20
2018-11-02T14:51:33.289Z,11.30
2018-11-02T14:52:43.130Z,11.20
2018-11-02T14:53:52.933Z,11.20
2018-11-02T14:55:02.714Z,11.20
2018-11-02T14:56:12.592Z,11.20
2018-11-02T14:57:22.329Z,11.10
2018-11-02T14:58:32.236Z,11.10
2018-11-02T14:59:42.084Z,11.00
2018-11-02T15:00:51.635Z,11.00
2018-11-02T15:02:01.594Z,11.00
2018-11-02T15:03:11.464Z,11.00
2018-11-02T15:04:21.118Z,11.00
2018-11-02T15:05:30.921Z,11.00
2018-11-02T15:06:40.581Z,11.00
2018-11-02T15:07:50.370Z,11.00
2018-11-02T15:09:00.041Z,11.00
2018-11-02T15:10:09.668Z,11.00
2018-11-02T15:11:19.568Z,11.00
2018-11-02T15:12:29.322Z,11.00
2018-11-02T15:13:39.496Z,11.00
2018-11-02T15:14:49.439Z,11.00
2018-11-02T15:15:59.152Z,11.00
2018-11-02T15:17:09.037Z,11.00
2018-11-02T15:18:18.745Z,11.00
2018-11-02T15:19:28.353Z,11.00
2018-11-02T15:20:38.110Z,11.00
2018-11-02T15:21:47.724Z,11.00